KMCO/MCO METAR and TAF weather

Enter ICAO airport designator
Station Type Date Time Source
KMCO METAR 2019/10/23 20:53 UTC NOAA

KMCO 232053Z 07009KT 10SM SCT038 BKN250 28/17 A3006 RMK AO2 SLP176 T02780167 53002


Station Type Date Time Source
KMCO Decoded METAR 2019/10/23 20:53 UTC NOAA

ORLANDO INTERNATIONAL AIRPORT , FL, United States (KMCO) 28-25N 81-20W 29M
Oct 23, 2019 - 04:53 PM EDT / 2019.10.23 2053 UTC
Wind: from the ENE (070 degrees) at 10 MPH (9 KT):0
Visibility: 10 mile(s):0
Sky conditions: mostly cloudy
Temperature: 82.0 F (27.8 C)
Dew Point: 62.1 F (16.7 C)
Relative Humidity: 50%
Pressure (altimeter): 30.06 in. Hg (1017 hPa)
Pressure tendency: 0.01 inches (0.2 hPa) higher than three hours ago
ob: KMCO 232053Z 07009KT 10SM SCT038 BKN250 28/17 A3006 RMK AO2 SLP176 T02780167 53002
cycle: 21

Station Type Date Time Source
KMCO TAF 2019/10/23 21:58 UTC NOAA

TAF
AMD KMCO 232058Z 2321/2424 07010KT P6SM BKN040 BKN250
FM240100 02007KT P6SM SCT025 BKN035
FM241500 07011KT P6SM VCSH BKN040

Example: see airport list